createdAt,value
2017-12-22T00:02:10.429Z,100.00
2017-12-22T00:04:40.263Z,100.00
2017-12-22T00:07:10.730Z,100.00
2017-12-22T00:09:41.527Z,100.00
2017-12-22T00:12:11.659Z,100.00
2017-12-22T00:14:41.551Z,100.00
2017-12-22T00:17:12.022Z,100.00
2017-12-22T00:19:41.861Z,100.00
2017-12-22T00:22:11.181Z,100.00
2017-12-22T00:24:40.841Z,100.00
2017-12-22T00:27:10.755Z,100.00
2017-12-22T00:29:40.615Z,100.00
2017-12-22T00:32:10.538Z,100.00
2017-12-22T00:34:40.371Z,100.00
2017-12-22T00:37:10.237Z,100.00
2017-12-22T00:39:40.165Z,100.00
2017-12-22T00:42:10.030Z,100.00
2017-12-22T00:44:39.933Z,100.00
2017-12-22T00:47:09.812Z,100.00
2017-12-22T00:49:39.668Z,100.00
2017-12-22T00:52:09.495Z,100.00
2017-12-22T00:54:39.343Z,100.00
2017-12-22T00:57:09.185Z,100.00
2017-12-22T00:59:39.142Z,100.00
2017-12-22T01:02:09.090Z,100.00
2017-12-22T01:04:38.952Z,100.00
2017-12-22T01:07:08.802Z,100.00
2017-12-22T01:09:38.745Z,100.00
2017-12-22T01:12:08.647Z,100.00
2017-12-22T01:14:38.492Z,100.00
2017-12-22T01:17:13.833Z,100.00
2017-12-22T01:19:43.657Z,100.00
2017-12-22T01:22:13.905Z,100.00
2017-12-22T01:24:43.805Z,100.00
2017-12-22T01:27:13.674Z,100.00
2017-12-22T01:29:43.496Z,100.00
2017-12-22T01:32:13.424Z,100.00
2017-12-22T01:34:43.268Z,100.00
2017-12-22T01:37:13.386Z,100.00
2017-12-22T01:39:44.560Z,100.00
2017-12-22T01:42:17.347Z,100.00
2017-12-22T01:44:47.177Z,100.00
2017-12-22T01:47:17.012Z,100.00
2017-12-22T01:52:47.203Z,100.00
2017-12-22T01:55:17.089Z,100.00
2017-12-22T01:57:46.939Z,100.00
2017-12-22T02:00:16.871Z,100.00
2017-12-22T02:02:46.452Z,100.00
2017-12-22T02:05:16.366Z,100.00
2017-12-22T02:07:46.229Z,100.00
2017-12-22T02:10:16.089Z,100.00
2017-12-22T02:12:45.911Z,100.00
2017-12-22T02:15:15.810Z,100.00
2017-12-22T02:17:45.636Z,100.00
2017-12-22T02:20:15.746Z,100.00
2017-12-22T02:22:45.630Z,100.00
2017-12-22T02:25:15.504Z,100.00
2017-12-22T02:27:45.372Z,100.00
2017-12-22T02:30:15.233Z,100.00
2017-12-22T02:32:45.106Z,100.00
2017-12-22T02:35:14.683Z,100.00
2017-12-22T02:37:44.537Z,100.00
2017-12-22T02:40:14.357Z,100.00
2017-12-22T02:42:44.281Z,100.00
2017-12-22T02:45:14.156Z,100.00
2017-12-22T02:47:44.007Z,100.00
2017-12-22T02:50:14.086Z,100.00
2017-12-22T02:52:43.927Z,100.00
2017-12-22T02:55:13.870Z,100.00
2017-12-22T02:57:43.698Z,100.00
2017-12-22T03:00:13.513Z,100.00
2017-12-22T03:02:43.457Z,100.00
2017-12-22T03:05:13.308Z,100.00
2017-12-22T03:07:43.227Z,100.00
2017-12-22T03:10:12.805Z,100.00
2017-12-22T03:12:42.633Z,100.00
2017-12-22T03:15:12.523Z,100.00
2017-12-22T03:17:42.378Z,100.00
2017-12-22T03:20:12.277Z,100.00
2017-12-22T03:22:42.161Z,100.00
2017-12-22T03:25:12.076Z,100.00
2017-12-22T03:27:41.883Z,100.00
2017-12-22T03:30:11.758Z,100.00
2017-12-22T03:32:41.663Z,100.00
2017-12-22T03:35:11.463Z,100.00
2017-12-22T03:37:41.301Z,100.00
2017-12-22T03:40:11.168Z,100.00
2017-12-22T03:42:40.997Z,100.00
2017-12-22T03:45:10.864Z,100.00
2017-12-22T03:47:40.878Z,100.00
2017-12-22T03:50:10.494Z,100.00
2017-12-22T03:52:40.416Z,100.00
2017-12-22T03:55:10.296Z,100.00
2017-12-22T03:57:40.182Z,100.00
2017-12-22T04:00:10.111Z,100.00
2017-12-22T04:02:39.996Z,100.00
2017-12-22T04:05:09.908Z,100.00
2017-12-22T04:07:39.805Z,100.00
2017-12-22T04:10:09.811Z,100.00
2017-12-22T04:12:39.624Z,100.00
2017-12-22T04:15:09.500Z,100.00
2017-12-22T04:17:39.312Z,100.00
2017-12-22T04:20:09.210Z,100.00
2017-12-22T04:22:39.034Z,100.00
2017-12-22T04:25:08.895Z,100.00
2017-12-22T04:27:38.730Z,100.00
2017-12-22T04:30:08.561Z,100.00
2017-12-22T04:32:38.411Z,100.00
2017-12-22T04:35:08.040Z,100.00
2017-12-22T04:37:37.894Z,100.00
2017-12-22T04:40:07.791Z,100.00
2017-12-22T04:42:37.626Z,100.00
2017-12-22T04:45:07.437Z,100.00
2017-12-22T04:47:37.072Z,100.00
2017-12-22T04:50:06.915Z,100.00
2017-12-22T04:52:36.737Z,100.00
2017-12-22T04:55:06.616Z,100.00
2017-12-22T04:57:36.449Z,100.00
2017-12-22T05:00:06.334Z,100.00
2017-12-22T05:02:35.949Z,100.00
2017-12-22T05:05:05.851Z,100.00
2017-12-22T05:07:35.700Z,100.00
2017-12-22T05:10:05.687Z,100.00
2017-12-22T05:12:35.512Z,100.00
2017-12-22T05:15:05.329Z,100.00
2017-12-22T05:17:35.203Z,100.00
2017-12-22T05:20:05.152Z,100.00
2017-12-22T05:22:34.992Z,100.00
2017-12-22T05:25:04.807Z,100.00
2017-12-22T05:27:34.854Z,100.00
2017-12-22T05:32:43.055Z,100.00
2017-12-22T05:35:12.913Z,100.00
2017-12-22T05:37:42.798Z,100.00
2017-12-22T05:40:12.621Z,100.00
2017-12-22T05:42:42.537Z,100.00
2017-12-22T05:45:12.591Z,100.00
2017-12-22T05:47:42.569Z,100.00
2017-12-22T05:50:12.423Z,100.00
2017-12-22T05:52:42.298Z,100.00
2017-12-22T05:55:12.178Z,100.00
2017-12-22T05:57:42.049Z,100.00
2017-12-22T06:00:11.976Z,100.00
2017-12-22T06:02:41.799Z,100.00
2017-12-22T06:05:15.270Z,100.00
2017-12-22T06:07:45.104Z,100.00
2017-12-22T06:10:15.040Z,100.00
2017-12-22T06:12:45.026Z,100.00
2017-12-22T06:15:14.990Z,100.00
2017-12-22T06:17:44.877Z,100.00
2017-12-22T06:20:14.840Z,100.00
2017-12-22T06:22:45.035Z,100.00
2017-12-22T06:25:15.030Z,100.00
2017-12-22T06:27:45.138Z,100.00
2017-12-22T06:30:14.937Z,100.00
2017-12-22T06:32:44.920Z,100.00
2017-12-22T06:35:14.601Z,100.00
2017-12-22T06:37:44.623Z,100.00
2017-12-22T06:40:14.562Z,100.00
2017-12-22T06:42:44.444Z,100.00
2017-12-22T06:45:14.397Z,100.00
2017-12-22T06:47:44.254Z,100.00
2017-12-22T06:50:14.164Z,100.00
2017-12-22T06:52:44.016Z,100.00
2017-12-22T06:55:13.890Z,100.00
2017-12-22T06:57:43.859Z,100.00
2017-12-22T07:00:13.747Z,100.00
2017-12-22T07:02:43.752Z,100.00
2017-12-22T07:05:13.809Z,100.00
2017-12-22T07:07:44.644Z,100.00
2017-12-22T07:10:23.145Z,100.00
2017-12-22T07:12:53.652Z,100.00
2017-12-22T07:15:23.471Z,100.00
2017-12-22T07:17:53.891Z,100.00
2017-12-22T07:20:25.047Z,100.00
2017-12-22T07:22:55.829Z,100.00
2017-12-22T07:25:25.814Z,100.00
2017-12-22T07:27:55.790Z,100.00
2017-12-22T07:30:25.862Z,100.00
2017-12-22T07:32:56.540Z,100.00
2017-12-22T07:35:26.652Z,100.00
2017-12-22T07:37:56.614Z,99.45
2017-12-22T07:40:26.579Z,99.52
2017-12-22T07:42:56.546Z,99.06
2017-12-22T07:45:26.646Z,97.92
2017-12-22T07:47:56.462Z,98.81
2017-12-22T07:50:26.253Z,97.67
2017-12-22T07:52:56.111Z,97.70
2017-12-22T07:55:26.005Z,97.63
2017-12-22T07:57:56.055Z,97.51
2017-12-22T08:00:26.324Z,96.98
2017-12-22T08:02:56.345Z,97.01
2017-12-22T08:05:26.573Z,96.90
2017-12-22T08:07:56.929Z,96.93
2017-12-22T08:10:26.981Z,97.25
2017-12-22T08:13:00.721Z,96.58
2017-12-22T08:15:33.599Z,96.15
2017-12-22T08:18:04.543Z,96.11
2017-12-22T08:20:34.544Z,96.28
2017-12-22T08:23:04.877Z,95.91
2017-12-22T08:25:34.738Z,96.25
2017-12-22T08:28:05.296Z,96.44
2017-12-22T08:30:35.565Z,95.62
2017-12-22T08:33:07.359Z,95.96
2017-12-22T08:35:37.880Z,96.12
2017-12-22T08:38:09.211Z,96.16
2017-12-22T08:40:40.302Z,95.23
2017-12-22T08:43:10.585Z,95.80
2017-12-22T08:45:41.769Z,95.80
2017-12-22T08:48:14.379Z,96.09
2017-12-22T08:50:44.611Z,96.01
2017-12-22T08:53:15.159Z,95.20
2017-12-22T08:55:46.025Z,95.11
2017-12-22T08:58:15.778Z,95.50
2017-12-22T09:00:46.249Z,95.58
2017-12-22T09:03:16.256Z,95.32
2017-12-22T09:05:47.184Z,95.31
2017-12-22T09:08:17.808Z,95.51
2017-12-22T09:10:49.160Z,95.47
2017-12-22T09:13:21.203Z,95.78
2017-12-22T09:15:54.211Z,95.33
2017-12-22T09:18:24.436Z,96.24
2017-12-22T09:20:54.441Z,95.68
2017-12-22T09:23:24.659Z,96.39
2017-12-22T09:25:54.884Z,95.44
2017-12-22T09:28:25.377Z,94.73
2017-12-22T09:30:56.849Z,95.14
2017-12-22T09:33:27.084Z,95.25
2017-12-22T09:35:57.680Z,94.76
2017-12-22T09:38:27.835Z,94.56
2017-12-22T09:43:33.766Z,94.03
2017-12-22T09:46:04.220Z,93.28
2017-12-22T09:48:35.901Z,92.92
2017-12-22T09:51:06.300Z,92.32
2017-12-22T09:53:36.688Z,92.34
2017-12-22T09:56:07.148Z,92.19
2017-12-22T09:58:37.410Z,92.50
2017-12-22T10:03:42.754Z,91.45
2017-12-22T10:06:18.104Z,91.65
2017-12-22T10:08:48.318Z,91.80
2017-12-22T10:11:19.234Z,90.20
2017-12-22T10:13:49.233Z,90.05
2017-12-22T10:16:19.093Z,89.34
2017-12-22T10:18:48.977Z,91.47
2017-12-22T10:21:18.986Z,92.48
2017-12-22T10:23:48.838Z,91.46
2017-12-22T10:26:19.013Z,93.79
2017-12-22T10:28:49.134Z,91.52
2017-12-22T10:31:21.067Z,89.76
2017-12-22T10:33:53.045Z,90.65
2017-12-22T10:36:22.997Z,91.79
2017-12-22T10:38:52.794Z,90.75
2017-12-22T10:41:23.429Z,91.39
2017-12-22T10:44:01.892Z,91.44
2017-12-22T10:46:32.019Z,90.62
2017-12-22T10:49:02.276Z,89.95
2017-12-22T10:51:32.517Z,89.47
2017-12-22T10:54:03.105Z,89.15
2017-12-22T10:56:33.101Z,89.78
2017-12-22T10:59:02.961Z,88.16
2017-12-22T11:01:35.077Z,88.98
2017-12-22T11:04:05.737Z,88.29
2017-12-22T11:06:36.205Z,88.62
2017-12-22T11:09:06.531Z,88.20
2017-12-22T11:11:36.567Z,88.06
2017-12-22T11:14:06.414Z,88.31
2017-12-22T11:16:37.271Z,87.83
2017-12-22T11:19:08.024Z,86.98
2017-12-22T11:21:38.334Z,86.94
2017-12-22T11:24:08.814Z,87.09
2017-12-22T11:26:39.842Z,87.32
2017-12-22T11:29:09.885Z,87.47
2017-12-22T11:31:39.956Z,87.95
2017-12-22T11:34:10.044Z,88.27
2017-12-22T11:36:40.946Z,88.44
2017-12-22T11:39:11.481Z,88.38
2017-12-22T11:41:42.116Z,88.75
2017-12-22T11:44:12.347Z,88.49
2017-12-22T11:46:42.172Z,88.02
2017-12-22T11:49:12.338Z,88.16
2017-12-22T11:51:42.254Z,87.87
2017-12-22T11:54:12.685Z,87.71
2017-12-22T11:56:42.517Z,88.30
2017-12-22T11:59:12.677Z,88.29
2017-12-22T12:01:43.166Z,87.91
2017-12-22T12:04:13.298Z,87.03
2017-12-22T12:06:43.560Z,87.12
2017-12-22T12:09:13.561Z,86.56
2017-12-22T12:11:43.706Z,85.90
2017-12-22T12:14:14.105Z,84.88
2017-12-22T12:16:44.215Z,84.91
2017-12-22T12:19:14.453Z,84.75
2017-12-22T12:21:44.625Z,84.59
2017-12-22T12:24:15.417Z,83.77
2017-12-22T12:26:45.237Z,84.36
2017-12-22T12:29:15.210Z,84.42
2017-12-22T12:31:45.164Z,84.65
2017-12-22T12:34:15.332Z,84.98
2017-12-22T12:36:45.528Z,84.97
2017-12-22T12:39:15.509Z,84.26
2017-12-22T12:41:45.502Z,84.62
2017-12-22T12:44:17.242Z,84.46
2017-12-22T12:46:46.906Z,85.29
2017-12-22T12:49:16.835Z,85.01
2017-12-22T12:51:47.036Z,86.20
2017-12-22T12:54:16.975Z,85.66
2017-12-22T12:56:47.478Z,86.44
2017-12-22T12:59:17.800Z,85.94
2017-12-22T13:01:48.145Z,87.81
2017-12-22T13:04:19.646Z,87.09
2017-12-22T13:06:50.034Z,85.72
2017-12-22T13:09:20.049Z,85.89
2017-12-22T13:11:50.752Z,85.03
2017-12-22T13:14:20.790Z,85.90
2017-12-22T13:16:50.837Z,85.96
2017-12-22T13:19:21.056Z,85.83
2017-12-22T13:21:50.968Z,86.10
2017-12-22T13:24:21.138Z,87.28
2017-12-22T13:26:52.247Z,86.05
2017-12-22T13:29:22.156Z,86.38
2017-12-22T13:31:52.350Z,86.79
2017-12-22T13:34:22.650Z,87.31
2017-12-22T13:36:53.155Z,88.20
2017-12-22T13:39:22.754Z,86.86
2017-12-22T13:41:53.269Z,86.43
2017-12-22T13:44:23.258Z,87.02
2017-12-22T13:50:00.611Z,87.00
2017-12-22T13:55:05.497Z,87.01
2017-12-22T13:57:37.238Z,87.43
2017-12-22T14:00:07.198Z,87.68
2017-12-22T14:02:37.458Z,88.03
2017-12-22T14:05:07.389Z,87.86
2017-12-22T14:07:37.408Z,88.51
2017-12-22T14:10:07.419Z,88.09
2017-12-22T14:12:37.444Z,88.37
2017-12-22T14:15:10.173Z,88.26
2017-12-22T14:17:40.364Z,90.22
2017-12-22T14:20:10.633Z,89.09
2017-12-22T14:22:40.474Z,89.32
2017-12-22T14:25:10.293Z,88.59
2017-12-22T14:27:40.149Z,88.72
2017-12-22T14:30:10.194Z,88.76
2017-12-22T14:32:40.057Z,88.94
2017-12-22T14:35:10.489Z,89.10
2017-12-22T14:37:40.279Z,89.57
2017-12-22T14:40:11.568Z,89.90
2017-12-22T14:42:41.399Z,90.01
2017-12-22T14:45:11.275Z,89.93
2017-12-22T14:47:41.101Z,90.65
2017-12-22T14:50:11.166Z,91.20
2017-12-22T14:52:41.037Z,91.16
2017-12-22T14:55:10.867Z,90.71
2017-12-22T14:57:40.766Z,90.42
2017-12-22T15:00:10.678Z,91.18
2017-12-22T15:02:40.506Z,91.19
2017-12-22T15:05:10.664Z,90.10
2017-12-22T15:07:40.551Z,89.98
2017-12-22T15:10:10.495Z,90.98
2017-12-22T15:12:40.601Z,91.30
2017-12-22T15:15:10.417Z,92.31
2017-12-22T15:17:40.376Z,92.87
2017-12-22T15:20:10.331Z,93.10
2017-12-22T15:22:40.397Z,93.04
2017-12-22T15:25:10.471Z,94.39
2017-12-22T15:27:40.271Z,93.84
2017-12-22T15:30:10.253Z,93.16
2017-12-22T15:32:40.103Z,92.78
2017-12-22T15:35:10.165Z,92.99
2017-12-22T15:37:40.037Z,92.76
2017-12-22T15:40:10.006Z,92.83
2017-12-22T15:42:41.043Z,93.25
2017-12-22T15:45:14.773Z,93.52
2017-12-22T15:47:44.525Z,92.99
2017-12-22T15:50:14.491Z,93.72
2017-12-22T15:52:44.330Z,93.96
2017-12-22T15:55:14.177Z,93.77
2017-12-22T15:57:44.006Z,93.92
2017-12-22T16:00:13.816Z,94.05
2017-12-22T16:02:43.603Z,93.71
2017-12-22T16:05:13.620Z,93.78
2017-12-22T16:07:43.443Z,93.60
2017-12-22T16:10:13.233Z,94.58
2017-12-22T16:12:43.038Z,93.63
2017-12-22T16:15:12.840Z,93.47
2017-12-22T16:17:42.624Z,93.99
2017-12-22T16:20:12.443Z,94.14
2017-12-22T16:22:42.216Z,94.76
2017-12-22T16:25:12.011Z,94.60
2017-12-22T16:27:41.808Z,94.55
2017-12-22T16:30:11.627Z,93.88
2017-12-22T16:32:41.412Z,94.70
2017-12-22T16:35:11.207Z,94.09
2017-12-22T16:37:40.994Z,94.50
2017-12-22T16:40:10.809Z,94.87
2017-12-22T16:42:40.617Z,94.98
2017-12-22T16:45:10.435Z,94.94
2017-12-22T16:47:40.243Z,95.11
2017-12-22T16:50:10.031Z,95.77
2017-12-22T16:52:39.818Z,95.43
2017-12-22T16:55:13.323Z,95.04
2017-12-22T16:57:43.136Z,95.03
2017-12-22T17:00:13.103Z,95.40
2017-12-22T17:02:42.899Z,94.17
2017-12-22T17:05:13.442Z,94.55
2017-12-22T17:07:43.619Z,94.36
2017-12-22T17:10:13.425Z,95.62
2017-12-22T17:12:43.275Z,95.73
2017-12-22T17:15:13.084Z,95.46
2017-12-22T17:17:42.861Z,95.90
2017-12-22T17:20:12.697Z,95.50
2017-12-22T17:22:42.466Z,94.98
2017-12-22T17:25:12.475Z,95.04
2017-12-22T17:27:42.241Z,95.22
2017-12-22T17:30:12.081Z,94.89
2017-12-22T17:32:42.014Z,94.90
2017-12-22T17:35:14.672Z,93.49
2017-12-22T17:37:47.139Z,93.08
2017-12-22T17:40:17.559Z,93.25
2017-12-22T17:42:47.952Z,93.04
2017-12-22T17:45:18.712Z,93.28
2017-12-22T17:47:49.273Z,93.10
2017-12-22T17:50:20.083Z,93.37
2017-12-22T17:52:50.161Z,93.49
2017-12-22T17:55:20.098Z,93.78
2017-12-22T17:57:50.312Z,93.52
2017-12-22T18:00:20.779Z,94.00
2017-12-22T18:02:51.734Z,94.12
2017-12-22T18:05:22.012Z,95.03
2017-12-22T18:07:51.914Z,95.47
2017-12-22T18:10:23.058Z,95.20
2017-12-22T18:12:53.395Z,95.87
2017-12-22T18:15:23.918Z,96.05
2017-12-22T18:17:54.056Z,96.36
2017-12-22T18:20:23.654Z,97.32
2017-12-22T18:22:53.964Z,97.70
2017-12-22T18:25:24.197Z,97.97
2017-12-22T18:27:54.285Z,97.95
2017-12-22T18:30:24.151Z,97.97
2017-12-22T18:32:53.963Z,97.49
2017-12-22T18:35:24.172Z,97.30
2017-12-22T18:37:54.394Z,97.32
2017-12-22T18:40:25.050Z,97.27
2017-12-22T18:42:54.918Z,96.76
2017-12-22T18:45:25.064Z,96.40
2017-12-22T18:47:55.652Z,96.36
2017-12-22T18:50:26.669Z,96.00
2017-12-22T18:52:57.049Z,95.34
2017-12-22T18:55:28.125Z,95.31
2017-12-22T18:57:59.033Z,95.31
2017-12-22T19:00:29.230Z,95.25
2017-12-22T19:03:00.042Z,94.99
2017-12-22T19:05:30.389Z,95.06
2017-12-22T19:08:00.713Z,95.55
2017-12-22T19:10:31.318Z,95.83
2017-12-22T19:13:01.997Z,96.37
2017-12-22T19:15:31.998Z,96.38
2017-12-22T19:18:02.642Z,96.72
2017-12-22T19:20:32.629Z,96.85
2017-12-22T19:23:02.772Z,96.86
2017-12-22T19:25:32.853Z,96.94
2017-12-22T19:28:02.971Z,96.89
2017-12-22T19:30:33.195Z,99.22
2017-12-22T19:33:03.676Z,98.49
2017-12-22T19:35:33.819Z,98.27
2017-12-22T19:38:03.630Z,96.67
2017-12-22T19:40:33.916Z,94.95
2017-12-22T19:43:03.984Z,95.03
2017-12-22T19:45:34.024Z,95.19
2017-12-22T19:48:04.056Z,95.38
2017-12-22T19:50:34.342Z,95.62
2017-12-22T19:53:04.432Z,95.79
2017-12-22T19:55:34.779Z,96.16
2017-12-22T19:58:04.862Z,96.50
2017-12-22T20:00:34.907Z,96.54
2017-12-22T20:03:06.390Z,96.67
2017-12-22T20:05:37.471Z,96.87
2017-12-22T20:08:09.195Z,97.44
2017-12-22T20:14:14.148Z,98.11
2017-12-22T20:16:45.557Z,98.40
2017-12-22T20:19:16.927Z,98.76
2017-12-22T20:21:48.654Z,98.92
2017-12-22T20:24:19.523Z,99.16
2017-12-22T20:26:50.036Z,99.40
2017-12-22T20:29:22.140Z,98.99
2017-12-22T20:31:52.908Z,98.32
2017-12-22T20:34:24.956Z,97.06
2017-12-22T20:36:57.055Z,96.53
2017-12-22T20:39:28.399Z,96.31
2017-12-22T20:41:59.826Z,95.64
2017-12-22T20:44:32.087Z,95.45
2017-12-22T20:47:03.938Z,95.50
2017-12-22T20:49:35.075Z,95.62
2017-12-22T20:52:06.998Z,95.60
2017-12-22T20:54:39.492Z,95.58
2017-12-22T20:57:11.192Z,94.50
2017-12-22T20:59:42.588Z,94.32
2017-12-22T21:02:17.806Z,94.64
2017-12-22T21:04:50.458Z,94.89
2017-12-22T21:07:26.232Z,94.76
2017-12-22T21:09:58.247Z,94.93
2017-12-22T21:12:28.760Z,95.20
2017-12-22T21:15:00.148Z,94.86
2017-12-22T21:17:30.635Z,94.75
2017-12-22T21:20:01.158Z,94.55
2017-12-22T21:22:31.375Z,94.52
2017-12-22T21:25:01.858Z,94.80
2017-12-22T21:27:32.199Z,94.94
2017-12-22T21:30:02.360Z,95.55
2017-12-22T21:32:32.612Z,96.05
2017-12-22T21:35:02.568Z,96.64
2017-12-22T21:37:32.965Z,99.02
2017-12-22T21:40:03.364Z,97.85
2017-12-22T21:42:33.569Z,98.16
2017-12-22T21:45:03.674Z,97.52
2017-12-22T21:47:33.728Z,97.41
2017-12-22T21:50:03.818Z,97.34
2017-12-22T21:52:33.815Z,97.60
2017-12-22T21:55:03.905Z,98.09
2017-12-22T21:57:35.293Z,98.45
2017-12-22T22:00:05.502Z,97.77
2017-12-22T22:02:35.632Z,97.53
2017-12-22T22:05:05.724Z,97.34
2017-12-22T22:07:36.180Z,97.29
2017-12-22T22:10:06.287Z,97.35
2017-12-22T22:12:36.561Z,97.24
2017-12-22T22:15:06.628Z,97.54
2017-12-22T22:17:36.331Z,97.95
2017-12-22T22:20:06.864Z,98.36
2017-12-22T22:22:37.100Z,98.48
2017-12-22T22:25:08.836Z,98.76
2017-12-22T22:27:38.805Z,99.18
2017-12-22T22:30:08.704Z,99.61
2017-12-22T22:32:38.700Z,99.94
2017-12-22T22:35:08.675Z,99.99
2017-12-22T22:37:38.608Z,99.96
2017-12-22T22:40:08.537Z,100.00
2017-12-22T22:42:38.366Z,100.00
2017-12-22T22:45:08.029Z,99.93
2017-12-22T22:47:38.130Z,99.65
2017-12-22T22:50:08.008Z,99.44
2017-12-22T22:52:37.905Z,99.24
2017-12-22T22:55:08.002Z,98.88
2017-12-22T22:57:38.219Z,98.56
2017-12-22T23:00:17.183Z,98.09
2017-12-22T23:02:46.920Z,97.55
2017-12-22T23:05:28.605Z,97.31
2017-12-22T23:08:01.011Z,97.26
2017-12-22T23:10:32.865Z,97.19
2017-12-22T23:13:02.930Z,96.86
2017-12-22T23:15:33.399Z,96.58
2017-12-22T23:18:04.215Z,96.70
2017-12-22T23:20:34.624Z,96.66
2017-12-22T23:23:04.567Z,96.67
2017-12-22T23:25:34.460Z,96.86
2017-12-22T23:28:04.290Z,96.60
2017-12-22T23:30:34.119Z,96.35
2017-12-22T23:33:04.080Z,96.41
2017-12-22T23:35:34.340Z,95.31
2017-12-22T23:38:04.213Z,95.38
2017-12-22T23:40:38.295Z,95.31
2017-12-22T23:43:08.148Z,95.48
2017-12-22T23:45:37.991Z,95.39
2017-12-22T23:48:07.822Z,95.21
2017-12-22T23:50:37.694Z,95.57
2017-12-22T23:53:07.542Z,95.90
2017-12-22T23:55:37.361Z,95.48
2017-12-22T23:58:07.656Z,95.08
